sensor_id;sensor_type;location;lat;lon;timestamp;temperature;humidity
480;DHT22;226;48.606;9.096;2023-09-19T00:01:12;16.60;81.70
480;DHT22;226;48.606;9.096;2023-09-19T00:03:41;17.10;84.50
480;DHT22;226;48.606;9.096;2023-09-19T00:06:10;16.50;83.10
480;DHT22;226;48.606;9.096;2023-09-19T00:08:40;16.50;84.20
480;DHT22;226;48.606;9.096;2023-09-19T00:11:10;16.50;85.00
480;DHT22;226;48.606;9.096;2023-09-19T00:13:39;16.50;86.00
480;DHT22;226;48.606;9.096;2023-09-19T00:16:09;16.60;85.40
480;DHT22;226;48.606;9.096;2023-09-19T00:18:40;16.70;83.30
480;DHT22;226;48.606;9.096;2023-09-19T00:21:09;16.60;82.50
480;DHT22;226;48.606;9.096;2023-09-19T00:23:38;16.70;79.70
480;DHT22;226;48.606;9.096;2023-09-19T00:26:07;16.70;80.70
480;DHT22;226;48.606;9.096;2023-09-19T00:28:35;16.80;81.00
480;DHT22;226;48.606;9.096;2023-09-19T00:31:04;16.90;80.40
480;DHT22;226;48.606;9.096;2023-09-19T00:33:32;16.90;80.30
480;DHT22;226;48.606;9.096;2023-09-19T00:36:02;16.90;79.10
480;DHT22;226;48.606;9.096;2023-09-19T00:38:32;16.80;78.50
480;DHT22;226;48.606;9.096;2023-09-19T00:41:00;16.80;78.10
480;DHT22;226;48.606;9.096;2023-09-19T00:43:28;16.70;76.40
480;DHT22;226;48.606;9.096;2023-09-19T00:46:01;16.90;77.30
480;DHT22;226;48.606;9.096;2023-09-19T00:48:31;16.60;78.30
480;DHT22;226;48.606;9.096;2023-09-19T00:51:04;16.50;79.40
480;DHT22;226;48.606;9.096;2023-09-19T00:53:34;16.60;81.10
480;DHT22;226;48.606;9.096;2023-09-19T00:56:03;16.50;80.80
480;DHT22;226;48.606;9.096;2023-09-19T00:58:32;16.50;81.00
480;DHT22;226;48.606;9.096;2023-09-19T01:01:02;16.50;81.60
480;DHT22;226;48.606;9.096;2023-09-19T01:03:34;16.40;82.60
480;DHT22;226;48.606;9.096;2023-09-19T01:06:04;16.40;82.00
480;DHT22;226;48.606;9.096;2023-09-19T01:08:33;16.50;81.20
480;DHT22;226;48.606;9.096;2023-09-19T01:11:11;16.40;82.80
480;DHT22;226;48.606;9.096;2023-09-19T01:14:01;16.50;82.10
480;DHT22;226;48.606;9.096;2023-09-19T01:16:35;16.50;80.10
480;DHT22;226;48.606;9.096;2023-09-19T01:19:20;16.50;79.20
480;DHT22;226;48.606;9.096;2023-09-19T01:22:00;16.40;80.50
480;DHT22;226;48.606;9.096;2023-09-19T01:25:07;16.40;81.10
480;DHT22;226;48.606;9.096;2023-09-19T01:28:06;16.40;80.20
480;DHT22;226;48.606;9.096;2023-09-19T01:30:42;16.40;80.50
480;DHT22;226;48.606;9.096;2023-09-19T01:33:11;16.40;80.00
480;DHT22;226;48.606;9.096;2023-09-19T01:35:39;16.40;80.50
480;DHT22;226;48.606;9.096;2023-09-19T01:38:07;16.30;80.10
480;DHT22;226;48.606;9.096;2023-09-19T01:40:41;16.30;80.00
480;DHT22;226;48.606;9.096;2023-09-19T01:43:17;16.30;81.20
480;DHT22;226;48.606;9.096;2023-09-19T01:45:57;16.40;82.80
480;DHT22;226;48.606;9.096;2023-09-19T01:48:38;16.50;79.10
480;DHT22;226;48.606;9.096;2023-09-19T01:51:08;16.40;79.10
480;DHT22;226;48.606;9.096;2023-09-19T01:53:43;16.30;81.30
480;DHT22;226;48.606;9.096;2023-09-19T01:56:16;16.30;84.40
480;DHT22;226;48.606;9.096;2023-09-19T01:58:48;16.30;84.60
480;DHT22;226;48.606;9.096;2023-09-19T02:01:22;16.30;83.70
480;DHT22;226;48.606;9.096;2023-09-19T02:03:52;16.30;84.50
480;DHT22;226;48.606;9.096;2023-09-19T02:06:21;16.30;82.80
480;DHT22;226;48.606;9.096;2023-09-19T02:08:52;16.30;83.00
480;DHT22;226;48.606;9.096;2023-09-19T02:11:21;16.30;81.50
480;DHT22;226;48.606;9.096;2023-09-19T02:13:50;16.30;81.80
480;DHT22;226;48.606;9.096;2023-09-19T02:16:22;16.20;82.60
480;DHT22;226;48.606;9.096;2023-09-19T02:18:51;16.20;83.20
480;DHT22;226;48.606;9.096;2023-09-19T02:21:19;16.20;83.90
480;DHT22;226;48.606;9.096;2023-09-19T02:23:48;16.10;83.00
480;DHT22;226;48.606;9.096;2023-09-19T02:26:18;16.10;83.10
480;DHT22;226;48.606;9.096;2023-09-19T02:28:47;16.10;83.60
480;DHT22;226;48.606;9.096;2023-09-19T02:31:15;16.10;84.10
480;DHT22;226;48.606;9.096;2023-09-19T02:33:45;16.10;82.60
480;DHT22;226;48.606;9.096;2023-09-19T02:36:14;16.10;83.00
480;DHT22;226;48.606;9.096;2023-09-19T02:38:44;16.10;83.80
480;DHT22;226;48.606;9.096;2023-09-19T02:41:12;16.00;84.60
480;DHT22;226;48.606;9.096;2023-09-19T02:43:40;16.00;84.70
480;DHT22;226;48.606;9.096;2023-09-19T02:46:10;16.00;84.40
480;DHT22;226;48.606;9.096;2023-09-19T02:48:39;15.90;84.60
480;DHT22;226;48.606;9.096;2023-09-19T02:51:08;15.90;84.30
480;DHT22;226;48.606;9.096;2023-09-19T02:53:36;15.80;85.30
480;DHT22;226;48.606;9.096;2023-09-19T02:56:05;15.80;85.10
480;DHT22;226;48.606;9.096;2023-09-19T02:58:34;15.80;85.30
480;DHT22;226;48.606;9.096;2023-09-19T03:01:08;15.70;86.10
480;DHT22;226;48.606;9.096;2023-09-19T03:03:38;15.70;86.40
480;DHT22;226;48.606;9.096;2023-09-19T03:06:09;15.70;88.70
480;DHT22;226;48.606;9.096;2023-09-19T03:08:37;15.90;88.00
480;DHT22;226;48.606;9.096;2023-09-19T03:11:06;15.90;86.60
480;DHT22;226;48.606;9.096;2023-09-19T03:13:38;15.90;86.60
480;DHT22;226;48.606;9.096;2023-09-19T03:16:07;16.00;86.20
480;DHT22;226;48.606;9.096;2023-09-19T03:18:35;16.10;85.40
480;DHT22;226;48.606;9.096;2023-09-19T03:21:03;16.10;84.90
480;DHT22;226;48.606;9.096;2023-09-19T03:23:33;16.00;84.00
480;DHT22;226;48.606;9.096;2023-09-19T03:26:01;16.10;84.20
480;DHT22;226;48.606;9.096;2023-09-19T03:28:33;16.10;84.90
480;DHT22;226;48.606;9.096;2023-09-19T03:31:02;16.10;85.10
480;DHT22;226;48.606;9.096;2023-09-19T03:33:31;16.10;83.30
480;DHT22;226;48.606;9.096;2023-09-19T03:36:00;16.40;84.00
480;DHT22;226;48.606;9.096;2023-09-19T03:38:33;16.10;84.30
480;DHT22;226;48.606;9.096;2023-09-19T03:41:02;16.00;84.80
480;DHT22;226;48.606;9.096;2023-09-19T03:43:31;16.00;86.90
480;DHT22;226;48.606;9.096;2023-09-19T03:46:01;16.10;85.60
480;DHT22;226;48.606;9.096;2023-09-19T03:48:31;16.10;86.50
480;DHT22;226;48.606;9.096;2023-09-19T03:51:00;16.20;85.70
480;DHT22;226;48.606;9.096;2023-09-19T03:53:29;16.20;84.20
480;DHT22;226;48.606;9.096;2023-09-19T03:55:59;16.20;83.60
480;DHT22;226;48.606;9.096;2023-09-19T03:58:27;16.30;83.40
480;DHT22;226;48.606;9.096;2023-09-19T04:00:56;16.20;84.60
480;DHT22;226;48.606;9.096;2023-09-19T04:03:24;16.10;83.50
480;DHT22;226;48.606;9.096;2023-09-19T04:06:01;16.10;84.70
480;DHT22;226;48.606;9.096;2023-09-19T04:08:29;16.10;85.00
480;DHT22;226;48.606;9.096;2023-09-19T04:10:59;16.20;84.50
480;DHT22;226;48.606;9.096;2023-09-19T04:13:27;16.10;83.80
480;DHT22;226;48.606;9.096;2023-09-19T04:15:56;16.10;83.90
480;DHT22;226;48.606;9.096;2023-09-19T04:18:25;16.00;83.60
480;DHT22;226;48.606;9.096;2023-09-19T04:20:53;16.00;84.20
480;DHT22;226;48.606;9.096;2023-09-19T04:23:22;16.10;83.90
480;DHT22;226;48.606;9.096;2023-09-19T04:25:50;16.00;83.50
480;DHT22;226;48.606;9.096;2023-09-19T04:28:20;16.00;85.10
480;DHT22;226;48.606;9.096;2023-09-19T04:30:48;15.90;85.70
480;DHT22;226;48.606;9.096;2023-09-19T04:33:17;16.00;85.90
480;DHT22;226;48.606;9.096;2023-09-19T04:35:45;16.00;86.80
480;DHT22;226;48.606;9.096;2023-09-19T04:38:16;15.90;86.60
480;DHT22;226;48.606;9.096;2023-09-19T04:40:44;16.00;88.50
480;DHT22;226;48.606;9.096;2023-09-19T04:43:13;16.10;87.60
480;DHT22;226;48.606;9.096;2023-09-19T04:45:43;16.10;87.10
480;DHT22;226;48.606;9.096;2023-09-19T04:48:11;16.00;87.10
480;DHT22;226;48.606;9.096;2023-09-19T04:50:41;16.00;86.90
480;DHT22;226;48.606;9.096;2023-09-19T04:53:10;16.00;87.80
480;DHT22;226;48.606;9.096;2023-09-19T04:55:39;16.30;88.60
480;DHT22;226;48.606;9.096;2023-09-19T04:58:08;16.00;89.20
480;DHT22;226;48.606;9.096;2023-09-19T05:00:36;16.10;88.50
480;DHT22;226;48.606;9.096;2023-09-19T05:03:05;16.10;89.40
480;DHT22;226;48.606;9.096;2023-09-19T05:05:36;16.20;88.00
480;DHT22;226;48.606;9.096;2023-09-19T05:08:05;16.30;86.20
480;DHT22;226;48.606;9.096;2023-09-19T05:10:35;16.20;85.20
480;DHT22;226;48.606;9.096;2023-09-19T05:13:04;16.20;85.60
480;DHT22;226;48.606;9.096;2023-09-19T05:15:34;16.30;86.10
480;DHT22;226;48.606;9.096;2023-09-19T05:18:02;16.30;87.20
480;DHT22;226;48.606;9.096;2023-09-19T05:20:32;16.30;82.90
480;DHT22;226;48.606;9.096;2023-09-19T05:23:03;16.30;84.30
480;DHT22;226;48.606;9.096;2023-09-19T05:25:35;16.40;85.10
480;DHT22;226;48.606;9.096;2023-09-19T05:28:06;16.40;85.10
480;DHT22;226;48.606;9.096;2023-09-19T05:30:35;16.40;85.40
480;DHT22;226;48.606;9.096;2023-09-19T05:33:05;16.50;85.70
480;DHT22;226;48.606;9.096;2023-09-19T05:36:00;16.50;85.80
480;DHT22;226;48.606;9.096;2023-09-19T05:42:19;16.60;86.10
480;DHT22;226;48.606;9.096;2023-09-19T05:44:48;16.70;84.60
480;DHT22;226;48.606;9.096;2023-09-19T05:47:16;16.70;81.40
480;DHT22;226;48.606;9.096;2023-09-19T05:49:45;16.80;80.90
480;DHT22;226;48.606;9.096;2023-09-19T05:52:16;16.80;78.50
480;DHT22;226;48.606;9.096;2023-09-19T05:54:46;16.80;78.10
480;DHT22;226;48.606;9.096;2023-09-19T05:57:14;16.70;81.10
480;DHT22;226;48.606;9.096;2023-09-19T05:59:42;16.70;82.50
480;DHT22;226;48.606;9.096;2023-09-19T06:02:10;16.60;81.60
480;DHT22;226;48.606;9.096;2023-09-19T06:04:39;16.60;82.50
480;DHT22;226;48.606;9.096;2023-09-19T06:07:08;16.50;84.30
480;DHT22;226;48.606;9.096;2023-09-19T06:09:37;17.30;83.70
480;DHT22;226;48.606;9.096;2023-09-19T06:12:06;16.60;86.40
480;DHT22;226;48.606;9.096;2023-09-19T06:14:34;16.50;86.20
480;DHT22;226;48.606;9.096;2023-09-19T06:17:02;16.50;86.00
480;DHT22;226;48.606;9.096;2023-09-19T06:19:31;16.50;86.40
480;DHT22;226;48.606;9.096;2023-09-19T06:21:59;16.50;83.70
480;DHT22;226;48.606;9.096;2023-09-19T06:24:28;16.50;84.70
480;DHT22;226;48.606;9.096;2023-09-19T06:26:57;16.40;84.60
480;DHT22;226;48.606;9.096;2023-09-19T06:29:27;16.40;84.00
480;DHT22;226;48.606;9.096;2023-09-19T06:31:55;16.40;83.00
480;DHT22;226;48.606;9.096;2023-09-19T06:34:24;16.40;85.80
480;DHT22;226;48.606;9.096;2023-09-19T06:36:52;16.50;85.50
480;DHT22;226;48.606;9.096;2023-09-19T06:39:22;16.50;85.90
480;DHT22;226;48.606;9.096;2023-09-19T06:41:50;16.50;86.10
480;DHT22;226;48.606;9.096;2023-09-19T06:44:21;16.60;84.40
480;DHT22;226;48.606;9.096;2023-09-19T06:46:51;16.70;82.80
480;DHT22;226;48.606;9.096;2023-09-19T06:49:18;16.70;80.40
480;DHT22;226;48.606;9.096;2023-09-19T06:51:47;16.80;75.70
480;DHT22;226;48.606;9.096;2023-09-19T06:54:17;16.80;76.40
480;DHT22;226;48.606;9.096;2023-09-19T06:56:45;16.80;75.50
480;DHT22;226;48.606;9.096;2023-09-19T06:59:13;16.90;77.60
480;DHT22;226;48.606;9.096;2023-09-19T07:01:43;16.90;75.00
480;DHT22;226;48.606;9.096;2023-09-19T07:04:11;17.00;72.60
480;DHT22;226;48.606;9.096;2023-09-19T07:06:40;17.00;72.70
480;DHT22;226;48.606;9.096;2023-09-19T07:09:08;17.10;75.80
480;DHT22;226;48.606;9.096;2023-09-19T07:11:37;17.20;77.50
480;DHT22;226;48.606;9.096;2023-09-19T07:14:05;17.30;77.10
480;DHT22;226;48.606;9.096;2023-09-19T07:16:33;17.30;74.40
480;DHT22;226;48.606;9.096;2023-09-19T07:19:04;17.40;74.20
480;DHT22;226;48.606;9.096;2023-09-19T07:21:32;17.40;73.60
480;DHT22;226;48.606;9.096;2023-09-19T07:24:02;17.50;76.30
480;DHT22;226;48.606;9.096;2023-09-19T07:26:30;17.50;75.20
480;DHT22;226;48.606;9.096;2023-09-19T07:28:58;17.50;68.30
480;DHT22;226;48.606;9.096;2023-09-19T07:31:29;17.50;70.90
480;DHT22;226;48.606;9.096;2023-09-19T07:33:57;17.60;71.90
480;DHT22;226;48.606;9.096;2023-09-19T07:36:27;17.60;73.00
480;DHT22;226;48.606;9.096;2023-09-19T07:38:56;17.60;72.80
480;DHT22;226;48.606;9.096;2023-09-19T07:41:44;17.70;72.20
480;DHT22;226;48.606;9.096;2023-09-19T07:44:13;17.70;75.10
480;DHT22;226;48.606;9.096;2023-09-19T07:46:41;17.70;76.30
480;DHT22;226;48.606;9.096;2023-09-19T07:49:11;17.70;76.60
480;DHT22;226;48.606;9.096;2023-09-19T07:51:41;17.80;72.10
480;DHT22;226;48.606;9.096;2023-09-19T07:54:13;17.80;73.10
480;DHT22;226;48.606;9.096;2023-09-19T07:56:41;17.80;71.00
480;DHT22;226;48.606;9.096;2023-09-19T07:59:10;17.90;64.70
480;DHT22;226;48.606;9.096;2023-09-19T08:01:38;17.80;65.20
480;DHT22;226;48.606;9.096;2023-09-19T08:04:07;17.90;65.70
480;DHT22;226;48.606;9.096;2023-09-19T08:06:35;18.00;67.00
480;DHT22;226;48.606;9.096;2023-09-19T08:09:06;17.90;60.40
480;DHT22;226;48.606;9.096;2023-09-19T08:11:38;18.00;61.80
480;DHT22;226;48.606;9.096;2023-09-19T08:14:06;17.90;57.50
480;DHT22;226;48.606;9.096;2023-09-19T08:16:35;17.80;57.80
480;DHT22;226;48.606;9.096;2023-09-19T08:19:04;17.80;63.60
480;DHT22;226;48.606;9.096;2023-09-19T08:21:32;17.80;61.70
480;DHT22;226;48.606;9.096;2023-09-19T08:24:01;17.80;57.90
480;DHT22;226;48.606;9.096;2023-09-19T08:26:32;17.80;59.60
480;DHT22;226;48.606;9.096;2023-09-19T08:29:00;17.90;64.50
480;DHT22;226;48.606;9.096;2023-09-19T08:31:32;18.00;61.30
480;DHT22;226;48.606;9.096;2023-09-19T08:34:01;18.10;58.70
480;DHT22;226;48.606;9.096;2023-09-19T08:36:30;18.10;50.10
480;DHT22;226;48.606;9.096;2023-09-19T08:38:58;18.10;47.20
480;DHT22;226;48.606;9.096;2023-09-19T08:41:26;18.10;51.90
480;DHT22;226;48.606;9.096;2023-09-19T08:43:58;18.30;54.70
480;DHT22;226;48.606;9.096;2023-09-19T08:46:29;18.50;52.10
480;DHT22;226;48.606;9.096;2023-09-19T08:49:03;18.70;45.60
480;DHT22;226;48.606;9.096;2023-09-19T08:51:41;18.50;42.90
480;DHT22;226;48.606;9.096;2023-09-19T08:54:21;18.50;47.20
480;DHT22;226;48.606;9.096;2023-09-19T08:56:50;18.50;41.50
480;DHT22;226;48.606;9.096;2023-09-19T08:59:21;18.60;46.50
480;DHT22;226;48.606;9.096;2023-09-19T09:01:52;18.50;42.60
480;DHT22;226;48.606;9.096;2023-09-19T09:04:22;18.50;45.80
480;DHT22;226;48.606;9.096;2023-09-19T09:06:53;18.50;42.70
480;DHT22;226;48.606;9.096;2023-09-19T09:09:22;18.40;41.10
480;DHT22;226;48.606;9.096;2023-09-19T09:11:51;18.20;41.40
480;DHT22;226;48.606;9.096;2023-09-19T09:14:21;18.20;44.40
480;DHT22;226;48.606;9.096;2023-09-19T09:16:51;18.20;37.90
480;DHT22;226;48.606;9.096;2023-09-19T09:19:23;18.10;39.30
480;DHT22;226;48.606;9.096;2023-09-19T09:21:51;18.10;40.80
480;DHT22;226;48.606;9.096;2023-09-19T09:24:30;18.20;37.60
480;DHT22;226;48.606;9.096;2023-09-19T09:27:03;18.00;37.20
480;DHT22;226;48.606;9.096;2023-09-19T09:29:45;18.00;38.60
480;DHT22;226;48.606;9.096;2023-09-19T09:32:17;18.10;40.80
480;DHT22;226;48.606;9.096;2023-09-19T09:34:49;18.20;37.00
480;DHT22;226;48.606;9.096;2023-09-19T09:37:18;18.30;42.10
480;DHT22;226;48.606;9.096;2023-09-19T09:39:51;18.30;35.00
480;DHT22;226;48.606;9.096;2023-09-19T09:42:30;18.40;38.10
480;DHT22;226;48.606;9.096;2023-09-19T09:45:17;18.50;38.20
480;DHT22;226;48.606;9.096;2023-09-19T09:47:55;18.70;29.00
480;DHT22;226;48.606;9.096;2023-09-19T09:50:24;18.70;29.80
480;DHT22;226;48.606;9.096;2023-09-19T09:52:56;18.70;30.50
480;DHT22;226;48.606;9.096;2023-09-19T09:55:57;18.70;33.40
480;DHT22;226;48.606;9.096;2023-09-19T09:58:26;18.90;29.90
480;DHT22;226;48.606;9.096;2023-09-19T10:00:59;18.90;29.70
480;DHT22;226;48.606;9.096;2023-09-19T10:03:32;19.00;28.50
480;DHT22;226;48.606;9.096;2023-09-19T10:06:10;19.00;27.70
480;DHT22;226;48.606;9.096;2023-09-19T10:09:03;19.10;28.90
480;DHT22;226;48.606;9.096;2023-09-19T10:11:43;19.00;29.10
480;DHT22;226;48.606;9.096;2023-09-19T10:14:12;18.90;29.00
480;DHT22;226;48.606;9.096;2023-09-19T10:16:46;18.90;29.90
480;DHT22;226;48.606;9.096;2023-09-19T10:19:18;19.00;30.10
480;DHT22;226;48.606;9.096;2023-09-19T10:21:49;19.10;23.90
480;DHT22;226;48.606;9.096;2023-09-19T10:24:18;19.20;24.80
480;DHT22;226;48.606;9.096;2023-09-19T10:26:47;19.10;21.10
480;DHT22;226;48.606;9.096;2023-09-19T10:29:18;19.20;22.00
480;DHT22;226;48.606;9.096;2023-09-19T10:31:49;19.30;22.60
480;DHT22;226;48.606;9.096;2023-09-19T10:34:20;19.50;19.80
480;DHT22;226;48.606;9.096;2023-09-19T10:36:51;19.60;22.20
480;DHT22;226;48.606;9.096;2023-09-19T10:39:19;19.60;20.70
480;DHT22;226;48.606;9.096;2023-09-19T10:41:51;19.80;19.30
480;DHT22;226;48.606;9.096;2023-09-19T10:44:25;19.90;20.30
480;DHT22;226;48.606;9.096;2023-09-19T10:46:54;20.10;21.80
480;DHT22;226;48.606;9.096;2023-09-19T10:49:23;20.20;17.60
480;DHT22;226;48.606;9.096;2023-09-19T10:51:55;20.20;17.20
480;DHT22;226;48.606;9.096;2023-09-19T10:54:27;20.10;17.50
480;DHT22;226;48.606;9.096;2023-09-19T10:56:56;20.20;21.80
480;DHT22;226;48.606;9.096;2023-09-19T10:59:26;20.20;18.70
480;DHT22;226;48.606;9.096;2023-09-19T11:02:17;20.30;17.60
480;DHT22;226;48.606;9.096;2023-09-19T11:04:46;20.30;17.40
480;DHT22;226;48.606;9.096;2023-09-19T11:07:15;20.40;19.60
480;DHT22;226;48.606;9.096;2023-09-19T11:09:47;20.50;20.50
480;DHT22;226;48.606;9.096;2023-09-19T11:12:48;20.50;18.40
480;DHT22;226;48.606;9.096;2023-09-19T11:18:54;20.50;14.60
480;DHT22;226;48.606;9.096;2023-09-19T11:21:41;20.50;14.40
480;DHT22;226;48.606;9.096;2023-09-19T11:24:31;20.50;14.50
480;DHT22;226;48.606;9.096;2023-09-19T11:27:13;20.60;16.40
480;DHT22;226;48.606;9.096;2023-09-19T11:29:44;20.50;14.60
480;DHT22;226;48.606;9.096;2023-09-19T11:32:13;20.60;15.40
480;DHT22;226;48.606;9.096;2023-09-19T11:34:47;20.70;16.70
480;DHT22;226;48.606;9.096;2023-09-19T11:40:47;21.10;15.40
480;DHT22;226;48.606;9.096;2023-09-19T11:43:32;21.00;17.30
480;DHT22;226;48.606;9.096;2023-09-19T11:46:07;21.00;14.00
480;DHT22;226;48.606;9.096;2023-09-19T11:48:35;20.80;14.60
480;DHT22;226;48.606;9.096;2023-09-19T11:51:17;20.90;14.40
480;DHT22;226;48.606;9.096;2023-09-19T11:53:57;20.60;14.50
480;DHT22;226;48.606;9.096;2023-09-19T11:56:28;20.70;16.20
480;DHT22;226;48.606;9.096;2023-09-19T11:58:58;20.80;15.80
480;DHT22;226;48.606;9.096;2023-09-19T12:01:31;20.80;15.00
480;DHT22;226;48.606;9.096;2023-09-19T12:04:01;20.90;15.70
480;DHT22;226;48.606;9.096;2023-09-19T12:06:32;20.80;14.80
480;DHT22;226;48.606;9.096;2023-09-19T12:09:03;20.80;16.90
480;DHT22;226;48.606;9.096;2023-09-19T12:11:42;20.60;16.70
480;DHT22;226;48.606;9.096;2023-09-19T12:14:11;20.70;17.60
480;DHT22;226;48.606;9.096;2023-09-19T12:16:40;20.70;16.80
480;DHT22;226;48.606;9.096;2023-09-19T12:19:20;20.70;15.20
480;DHT22;226;48.606;9.096;2023-09-19T12:21:58;20.60;16.20
480;DHT22;226;48.606;9.096;2023-09-19T12:24:31;20.60;16.20
480;DHT22;226;48.606;9.096;2023-09-19T12:27:03;20.60;15.90
480;DHT22;226;48.606;9.096;2023-09-19T12:29:43;20.70;17.10
480;DHT22;226;48.606;9.096;2023-09-19T12:32:11;22.20;15.30
480;DHT22;226;48.606;9.096;2023-09-19T12:34:50;20.80;14.30
480;DHT22;226;48.606;9.096;2023-09-19T12:37:21;21.10;14.10
480;DHT22;226;48.606;9.096;2023-09-19T12:39:51;21.30;14.50
480;DHT22;226;48.606;9.096;2023-09-19T12:42:22;21.40;16.20
480;DHT22;226;48.606;9.096;2023-09-19T12:44:51;21.50;14.10
480;DHT22;226;48.606;9.096;2023-09-19T12:47:22;21.30;14.80
480;DHT22;226;48.606;9.096;2023-09-19T12:50:11;21.20;16.20
480;DHT22;226;48.606;9.096;2023-09-19T12:52:46;21.20;16.80
480;DHT22;226;48.606;9.096;2023-09-19T12:55:20;21.30;16.30
480;DHT22;226;48.606;9.096;2023-09-19T12:58:01;21.30;15.00
480;DHT22;226;48.606;9.096;2023-09-19T13:00:34;21.60;16.00
480;DHT22;226;48.606;9.096;2023-09-19T13:03:16;21.80;17.20
480;DHT22;226;48.606;9.096;2023-09-19T13:05:53;22.00;16.80
480;DHT22;226;48.606;9.096;2023-09-19T13:08:26;21.90;15.50
480;DHT22;226;48.606;9.096;2023-09-19T13:11:07;22.30;14.60
480;DHT22;226;48.606;9.096;2023-09-19T13:13:38;21.70;13.30
480;DHT22;226;48.606;9.096;2023-09-19T13:16:07;21.60;14.60
480;DHT22;226;48.606;9.096;2023-09-19T13:18:47;21.50;13.60
480;DHT22;226;48.606;9.096;2023-09-19T13:21:26;21.40;13.50
480;DHT22;226;48.606;9.096;2023-09-19T13:24:19;21.60;10.50
480;DHT22;226;48.606;9.096;2023-09-19T13:26:48;21.90;11.10
480;DHT22;226;48.606;9.096;2023-09-19T13:29:16;22.00;7.80
480;DHT22;226;48.606;9.096;2023-09-19T13:31:46;22.20;8.20
480;DHT22;226;48.606;9.096;2023-09-19T13:34:15;22.40;10.80
480;DHT22;226;48.606;9.096;2023-09-19T13:36:45;22.50;7.50
480;DHT22;226;48.606;9.096;2023-09-19T13:39:16;22.80;8.00
480;DHT22;226;48.606;9.096;2023-09-19T13:41:45;23.30;8.10
480;DHT22;226;48.606;9.096;2023-09-19T13:44:14;23.80;7.80
480;DHT22;226;48.606;9.096;2023-09-19T13:49:14;24.80;1.00
480;DHT22;226;48.606;9.096;2023-09-19T13:51:42;25.60;1.00
480;DHT22;226;48.606;9.096;2023-09-19T13:54:11;26.40;1.00
480;DHT22;226;48.606;9.096;2023-09-19T13:56:42;26.70;1.00
480;DHT22;226;48.606;9.096;2023-09-19T13:59:10;27.40;1.00
480;DHT22;226;48.606;9.096;2023-09-19T14:01:38;28.20;1.00
480;DHT22;226;48.606;9.096;2023-09-19T14:04:08;28.50;1.00
480;DHT22;226;48.606;9.096;2023-09-19T14:06:41;28.30;1.00
480;DHT22;226;48.606;9.096;2023-09-19T14:09:10;27.60;1.00
480;DHT22;226;48.606;9.096;2023-09-19T14:11:38;27.40;1.00
480;DHT22;226;48.606;9.096;2023-09-19T14:14:10;27.40;1.00
480;DHT22;226;48.606;9.096;2023-09-19T14:16:38;28.10;1.00
480;DHT22;226;48.606;9.096;2023-09-19T14:19:08;29.30;1.00
480;DHT22;226;48.606;9.096;2023-09-19T14:21:37;28.00;1.00
480;DHT22;226;48.606;9.096;2023-09-19T14:24:06;28.20;1.00
480;DHT22;226;48.606;9.096;2023-09-19T14:26:36;28.30;1.00
480;DHT22;226;48.606;9.096;2023-09-19T14:29:04;28.90;1.00
480;DHT22;226;48.606;9.096;2023-09-19T14:31:37;28.90;1.00
480;DHT22;226;48.606;9.096;2023-09-19T14:34:07;28.30;1.00
480;DHT22;226;48.606;9.096;2023-09-19T14:36:37;27.70;1.00
480;DHT22;226;48.606;9.096;2023-09-19T14:39:06;27.10;1.00
480;DHT22;226;48.606;9.096;2023-09-19T14:41:35;27.50;1.00
480;DHT22;226;48.606;9.096;2023-09-19T14:44:04;28.50;1.00
480;DHT22;226;48.606;9.096;2023-09-19T14:46:32;28.40;1.00
480;DHT22;226;48.606;9.096;2023-09-19T14:49:01;28.70;1.00
480;DHT22;226;48.606;9.096;2023-09-19T14:51:31;29.30;1.00
480;DHT22;226;48.606;9.096;2023-09-19T14:53:59;29.30;1.00
480;DHT22;226;48.606;9.096;2023-09-19T14:56:29;29.10;1.00
480;DHT22;226;48.606;9.096;2023-09-19T14:58:58;28.60;1.00
480;DHT22;226;48.606;9.096;2023-09-19T15:01:26;28.50;1.00
480;DHT22;226;48.606;9.096;2023-09-19T15:03:54;28.50;1.00
480;DHT22;226;48.606;9.096;2023-09-19T15:06:24;28.50;1.00
480;DHT22;226;48.606;9.096;2023-09-19T15:08:53;28.00;1.00
480;DHT22;226;48.606;9.096;2023-09-19T15:11:21;27.30;1.00
480;DHT22;226;48.606;9.096;2023-09-19T15:13:52;27.50;1.00
480;DHT22;226;48.606;9.096;2023-09-19T15:16:21;27.80;1.00
480;DHT22;226;48.606;9.096;2023-09-19T15:18:49;28.00;1.00
480;DHT22;226;48.606;9.096;2023-09-19T15:21:19;28.40;1.00
480;DHT22;226;48.606;9.096;2023-09-19T15:23:49;28.40;1.00
480;DHT22;226;48.606;9.096;2023-09-19T15:26:17;28.50;1.00
480;DHT22;226;48.606;9.096;2023-09-19T15:28:47;28.70;1.00
480;DHT22;226;48.606;9.096;2023-09-19T15:31:16;28.30;1.00
480;DHT22;226;48.606;9.096;2023-09-19T15:33:44;28.20;1.00
480;DHT22;226;48.606;9.096;2023-09-19T15:36:14;27.50;1.00
480;DHT22;226;48.606;9.096;2023-09-19T15:39:03;27.00;1.00
480;DHT22;226;48.606;9.096;2023-09-19T15:41:35;26.30;1.00
480;DHT22;226;48.606;9.096;2023-09-19T15:44:11;25.90;1.00
480;DHT22;226;48.606;9.096;2023-09-19T15:46:40;25.60;1.00
480;DHT22;226;48.606;9.096;2023-09-19T15:49:08;24.60;5.10
480;DHT22;226;48.606;9.096;2023-09-19T15:51:37;24.10;1.30
480;DHT22;226;48.606;9.096;2023-09-19T15:54:10;23.50;2.10
480;DHT22;226;48.606;9.096;2023-09-19T15:56:39;23.30;1.00
480;DHT22;226;48.606;9.096;2023-09-19T15:59:09;23.20;4.70
480;DHT22;226;48.606;9.096;2023-09-19T16:01:39;23.00;3.40
480;DHT22;226;48.606;9.096;2023-09-19T16:04:10;22.70;2.50
480;DHT22;226;48.606;9.096;2023-09-19T16:06:39;22.40;4.30
480;DHT22;226;48.606;9.096;2023-09-19T16:09:09;22.50;4.20
480;DHT22;226;48.606;9.096;2023-09-19T16:11:37;22.50;4.90
480;DHT22;226;48.606;9.096;2023-09-19T16:14:07;22.40;6.20
480;DHT22;226;48.606;9.096;2023-09-19T16:16:43;22.30;4.90
480;DHT22;226;48.606;9.096;2023-09-19T16:19:11;22.30;5.40
480;DHT22;226;48.606;9.096;2023-09-19T16:21:39;22.20;5.80
480;DHT22;226;48.606;9.096;2023-09-19T16:24:11;22.10;4.70
480;DHT22;226;48.606;9.096;2023-09-19T16:26:40;21.90;7.80
480;DHT22;226;48.606;9.096;2023-09-19T16:29:08;21.80;6.20
480;DHT22;226;48.606;9.096;2023-09-19T16:31:37;21.80;8.00
480;DHT22;226;48.606;9.096;2023-09-19T16:34:05;21.80;4.80
480;DHT22;226;48.606;9.096;2023-09-19T16:36:33;21.70;7.40
480;DHT22;226;48.606;9.096;2023-09-19T16:39:02;21.70;7.40
480;DHT22;226;48.606;9.096;2023-09-19T16:41:33;21.70;6.60
480;DHT22;226;48.606;9.096;2023-09-19T16:44:01;21.60;6.50
480;DHT22;226;48.606;9.096;2023-09-19T16:46:30;21.60;5.20
480;DHT22;226;48.606;9.096;2023-09-19T16:48:59;21.50;5.10
480;DHT22;226;48.606;9.096;2023-09-19T16:51:30;21.50;4.80
480;DHT22;226;48.606;9.096;2023-09-19T16:53:59;21.40;6.50
480;DHT22;226;48.606;9.096;2023-09-19T16:56:29;21.30;6.70
480;DHT22;226;48.606;9.096;2023-09-19T16:59:01;21.20;8.10
480;DHT22;226;48.606;9.096;2023-09-19T17:01:31;21.20;9.00
480;DHT22;226;48.606;9.096;2023-09-19T17:04:00;21.00;8.90
480;DHT22;226;48.606;9.096;2023-09-19T17:06:30;20.90;10.60
480;DHT22;226;48.606;9.096;2023-09-19T17:08:58;20.90;11.60
480;DHT22;226;48.606;9.096;2023-09-19T17:11:26;20.70;13.30
480;DHT22;226;48.606;9.096;2023-09-19T17:13:54;20.60;13.90
480;DHT22;226;48.606;9.096;2023-09-19T17:16:25;20.50;13.50
480;DHT22;226;48.606;9.096;2023-09-19T17:18:56;20.20;12.50